KORF

Norfolk International Airport

Norfolk, Virginia, USA
METAR KORF 181451Z 33008G17KT 10SM CLR M03/M13 A3021 RMK AO2 SLP229 T10331128 53008
Observed Flight Rules
Jan-18 @ 14:51 UTC (29 minutes ago) Visual Flight Rules
Wind Visibility Clouds
330° at 8 knots
 Gusting to 17 knots
10 miles
  • Clear skies
Temperatures Readings
Current -3°C / 27°F
Dewpoint -13°C / 9°F
Humidity 46%
Altimeter 30.21" Hg
Pressure 1022.9 hPa
Elevation 14
METAR KORF 181451Z 33008G17KT 10SM CLR M03/M13 A3021 RMK AO2 SLP229 T10331128 53008
Observed Flight Rules
Jan-18 @ 14:51 UTC
(29 minutes ago)
VFR
Wind Visibility
330° at 8 knots
 Gusting to 17 knots
10 miles
Clouds
  • Clear skies
Temperature Dewpoint
-3°C / 27°F -13°C / 9°F
Humidity Altimeter Pressure
46% 30.21" Hg 1022.9 hPa